sensor_id;sensor_type;location;lat;lon;timestamp;pressure;altitude;pressure_sealevel;temperature;humidity
2675;BME280;1347;42.122;24.746;2023-03-04T12:23:39;99497.13;;;16.38;61.01
2675;BME280;1347;42.122;24.746;2023-03-04T12:26:19;99492.97;;;16.56;60.47
2675;BME280;1347;42.122;24.746;2023-03-04T12:28:56;99499.84;;;16.82;61.86
2675;BME280;1347;42.122;24.746;2023-03-04T12:31:33;99488.84;;;16.34;63.10
2675;BME280;1347;42.122;24.746;2023-03-04T12:34:13;99488.59;;;16.59;61.83
2675;BME280;1347;42.122;24.746;2023-03-04T12:36:52;99482.34;;;16.51;62.81
2675;BME280;1347;42.122;24.746;2023-03-04T12:39:29;99481.13;;;16.56;62.36
2675;BME280;1347;42.122;24.746;2023-03-04T12:42:05;99478.06;;;16.47;61.75
2675;BME280;1347;42.122;24.746;2023-03-04T12:44:41;99478.75;;;16.54;62.47
2675;BME280;1347;42.122;24.746;2023-03-04T12:47:19;99477.13;;;16.64;63.17
2675;BME280;1347;42.122;24.746;2023-03-04T12:50:09;99484.06;;;16.38;61.38
2675;BME280;1347;42.122;24.746;2023-03-04T12:52:49;99471.78;;;15.91;61.93
2675;BME280;1347;42.122;24.746;2023-03-04T12:55:23;99463.97;;;15.82;62.11
2675;BME280;1347;42.122;24.746;2023-03-04T12:57:56;99461.44;;;16.06;62.28
2675;BME280;1347;42.122;24.746;2023-03-04T13:00:33;99464.19;;;16.06;61.44
2675;BME280;1347;42.122;24.746;2023-03-04T13:03:09;99454.63;;;16.14;62.26
2675;BME280;1347;42.122;24.746;2023-03-04T13:05:45;99456.16;;;16.18;61.37
2675;BME280;1347;42.122;24.746;2023-03-04T13:08:26;99446.41;;;16.07;60.73
2675;BME280;1347;42.122;24.746;2023-03-04T13:11:02;99449.81;;;16.22;60.49
2675;BME280;1347;42.122;24.746;2023-03-04T13:13:34;99440.84;;;16.51;59.95
2675;BME280;1347;42.122;24.746;2023-03-04T13:16:03;99437.50;;;17.05;57.95
2675;BME280;1347;42.122;24.746;2023-03-04T13:18:32;99434.88;;;16.90;57.96
2675;BME280;1347;42.122;24.746;2023-03-04T13:21:23;99439.97;;;16.96;58.33
2675;BME280;1347;42.122;24.746;2023-03-04T13:23:52;99434.66;;;16.78;59.67
2675;BME280;1347;42.122;24.746;2023-03-04T13:26:28;99431.94;;;16.74;59.38
2675;BME280;1347;42.122;24.746;2023-03-04T13:29:32;99421.38;;;16.62;59.46
2675;BME280;1347;42.122;24.746;2023-03-04T13:32:03;99424.84;;;16.70;58.56
2675;BME280;1347;42.122;24.746;2023-03-04T13:34:47;99420.97;;;16.64;58.51
2675;BME280;1347;42.122;24.746;2023-03-04T13:37:27;99421.75;;;16.61;59.43
2675;BME280;1347;42.122;24.746;2023-03-04T13:40:28;99422.03;;;16.36;58.27
2675;BME280;1347;42.122;24.746;2023-03-04T13:43:27;99411.91;;;16.18;60.12
2675;BME280;1347;42.122;24.746;2023-03-04T13:45:54;99405.03;;;15.93;61.95
2675;BME280;1347;42.122;24.746;2023-03-04T13:48:29;99408.75;;;15.75;61.23
2675;BME280;1347;42.122;24.746;2023-03-04T13:50:57;99411.44;;;15.86;61.90
2675;BME280;1347;42.122;24.746;2023-03-04T13:53:42;99401.00;;;15.56;61.79
2675;BME280;1347;42.122;24.746;2023-03-04T13:56:19;99403.16;;;15.20;61.62
2675;BME280;1347;42.122;24.746;2023-03-04T13:58:49;99400.59;;;14.78;63.06
2675;BME280;1347;42.122;24.746;2023-03-04T14:01:25;99397.16;;;14.52;64.06
2675;BME280;1347;42.122;24.746;2023-03-04T14:03:54;99398.78;;;14.18;64.95
2675;BME280;1347;42.122;24.746;2023-03-04T14:06:22;99387.75;;;14.11;65.83
2675;BME280;1347;42.122;24.746;2023-03-04T14:08:50;99384.22;;;14.10;66.27
2675;BME280;1347;42.122;24.746;2023-03-04T14:11:25;99388.16;;;14.06;66.63
2675;BME280;1347;42.122;24.746;2023-03-04T14:13:54;99383.44;;;14.06;67.40
2675;BME280;1347;42.122;24.746;2023-03-04T14:16:26;99381.47;;;13.99;65.74
2675;BME280;1347;42.122;24.746;2023-03-04T14:18:58;99377.53;;;13.97;66.44
2675;BME280;1347;42.122;24.746;2023-03-04T14:21:25;99371.63;;;13.98;67.84
2675;BME280;1347;42.122;24.746;2023-03-04T14:24:04;99374.38;;;14.09;66.54
2675;BME280;1347;42.122;24.746;2023-03-04T14:26:32;99372.00;;;14.11;66.58
2675;BME280;1347;42.122;24.746;2023-03-04T14:29:00;99365.34;;;13.80;67.48
2675;BME280;1347;42.122;24.746;2023-03-04T14:31:30;99361.81;;;13.90;67.36
2675;BME280;1347;42.122;24.746;2023-03-04T14:34:00;99368.13;;;13.84;67.28
2675;BME280;1347;42.122;24.746;2023-03-04T14:36:31;99355.91;;;13.67;67.61
2675;BME280;1347;42.122;24.746;2023-03-04T14:38:59;99350.81;;;13.73;67.84
2675;BME280;1347;42.122;24.746;2023-03-04T14:41:31;99353.56;;;13.69;68.95
2675;BME280;1347;42.122;24.746;2023-03-04T14:44:05;99347.66;;;13.56;69.58
2675;BME280;1347;42.122;24.746;2023-03-04T14:46:38;99345.28;;;13.51;69.88
2675;BME280;1347;42.122;24.746;2023-03-04T14:49:10;99344.91;;;13.63;69.87
2675;BME280;1347;42.122;24.746;2023-03-04T14:51:44;99344.91;;;13.53;69.23
2675;BME280;1347;42.122;24.746;2023-03-04T14:54:30;99345.28;;;13.44;70.55
2675;BME280;1347;42.122;24.746;2023-03-04T14:56:58;99346.84;;;13.31;70.30
2675;BME280;1347;42.122;24.746;2023-03-04T14:59:32;99340.03;;;12.79;72.75
2675;BME280;1347;42.122;24.746;2023-03-04T15:02:24;99334.88;;;12.67;72.87
2675;BME280;1347;42.122;24.746;2023-03-04T15:04:57;99332.50;;;12.65;73.41
2675;BME280;1347;42.122;24.746;2023-03-04T15:07:29;99332.50;;;12.58;73.91
2675;BME280;1347;42.122;24.746;2023-03-04T15:09:58;99325.81;;;12.59;73.80
2675;BME280;1347;42.122;24.746;2023-03-04T15:12:28;99321.78;;;12.35;73.56
2675;BME280;1347;42.122;24.746;2023-03-04T15:14:58;99325.97;;;12.11;74.65
2675;BME280;1347;42.122;24.746;2023-03-04T15:17:31;99326.31;;;12.03;75.51
2675;BME280;1347;42.122;24.746;2023-03-04T15:20:20;99324.28;;;11.86;75.68
2675;BME280;1347;42.122;24.746;2023-03-04T15:23:00;99317.09;;;11.70;75.26
2675;BME280;1347;42.122;24.746;2023-03-04T15:25:27;99306.38;;;11.55;77.31
2675;BME280;1347;42.122;24.746;2023-03-04T15:27:55;99307.06;;;11.44;77.77
2675;BME280;1347;42.122;24.746;2023-03-04T15:30:25;99309.91;;;11.11;78.89
2675;BME280;1347;42.122;24.746;2023-03-04T15:33:08;99307.91;;;11.04;81.31
2675;BME280;1347;42.122;24.746;2023-03-04T15:35:36;99310.34;;;11.13;80.74
2675;BME280;1347;42.122;24.746;2023-03-04T15:38:05;99304.16;;;11.23;79.81
2675;BME280;1347;42.122;24.746;2023-03-04T15:40:39;99308.09;;;11.26;79.97
2675;BME280;1347;42.122;24.746;2023-03-04T15:43:10;99306.84;;;11.20;80.25
2675;BME280;1347;42.122;24.746;2023-03-04T15:45:47;99299.81;;;11.19;80.20
2675;BME280;1347;42.122;24.746;2023-03-04T15:48:17;99297.38;;;11.10;80.83
2675;BME280;1347;42.122;24.746;2023-03-04T15:50:47;99292.28;;;11.09;82.50
2675;BME280;1347;42.122;24.746;2023-03-04T15:53:18;99294.56;;;11.03;82.02
2675;BME280;1347;42.122;24.746;2023-03-04T15:55:48;99289.72;;;10.89;82.29
2675;BME280;1347;42.122;24.746;2023-03-04T15:58:15;99288.13;;;10.85;83.53
2675;BME280;1347;42.122;24.746;2023-03-04T16:00:43;99285.34;;;10.81;83.47
2675;BME280;1347;42.122;24.746;2023-03-04T16:03:14;99287.94;;;10.67;83.47
2675;BME280;1347;42.122;24.746;2023-03-04T16:05:42;99286.31;;;10.62;83.82
2675;BME280;1347;42.122;24.746;2023-03-04T16:08:11;99293.69;;;10.55;84.75
2675;BME280;1347;42.122;24.746;2023-03-04T16:10:39;99293.94;;;10.43;84.72
2675;BME280;1347;42.122;24.746;2023-03-04T16:13:12;99294.59;;;10.32;85.81
2675;BME280;1347;42.122;24.746;2023-03-04T16:15:39;99287.03;;;10.22;85.84
2675;BME280;1347;42.122;24.746;2023-03-04T16:18:09;99293.66;;;10.21;85.77
2675;BME280;1347;42.122;24.746;2023-03-04T16:20:37;99286.56;;;10.17;86.36
2675;BME280;1347;42.122;24.746;2023-03-04T16:23:08;99291.97;;;10.13;86.41
2675;BME280;1347;42.122;24.746;2023-03-04T16:25:35;99282.09;;;10.05;86.92
2675;BME280;1347;42.122;24.746;2023-03-04T16:28:02;99290.97;;;9.98;87.87
2675;BME280;1347;42.122;24.746;2023-03-04T16:30:30;99287.72;;;9.89;88.58
2675;BME280;1347;42.122;24.746;2023-03-04T16:32:57;99296.94;;;9.78;89.23
2675;BME280;1347;42.122;24.746;2023-03-04T16:35:25;99289.44;;;9.71;90.87
2675;BME280;1347;42.122;24.746;2023-03-04T16:37:54;99298.00;;;9.70;90.55
2675;BME280;1347;42.122;24.746;2023-03-04T16:40:25;99294.31;;;9.58;91.56
2675;BME280;1347;42.122;24.746;2023-03-04T16:42:52;99301.69;;;9.54;92.10
2675;BME280;1347;42.122;24.746;2023-03-04T16:45:21;99302.53;;;9.58;91.71
2675;BME280;1347;42.122;24.746;2023-03-04T16:47:48;99302.19;;;9.37;93.09
2675;BME280;1347;42.122;24.746;2023-03-04T16:50:17;99303.94;;;9.49;92.55
2675;BME280;1347;42.122;24.746;2023-03-04T16:52:47;99305.16;;;9.51;92.31
2675;BME280;1347;42.122;24.746;2023-03-04T16:55:15;99309.31;;;9.19;96.23
2675;BME280;1347;42.122;24.746;2023-03-04T16:57:43;99311.59;;;9.36;94.33
2675;BME280;1347;42.122;24.746;2023-03-04T17:00:11;99311.63;;;9.40;93.89
2675;BME280;1347;42.122;24.746;2023-03-04T17:02:38;99311.31;;;9.45;94.03
2675;BME280;1347;42.122;24.746;2023-03-04T17:05:06;99309.47;;;9.52;93.03
2675;BME280;1347;42.122;24.746;2023-03-04T17:07:33;99305.63;;;9.57;93.73
2675;BME280;1347;42.122;24.746;2023-03-04T17:10:02;99309.59;;;9.59;93.77
2675;BME280;1347;42.122;24.746;2023-03-04T17:12:29;99307.03;;;9.47;95.63
2675;BME280;1347;42.122;24.746;2023-03-04T17:14:56;99311.84;;;9.54;94.33
2675;BME280;1347;42.122;24.746;2023-03-04T17:17:23;99312.16;;;9.49;94.79
2675;BME280;1347;42.122;24.746;2023-03-04T17:19:50;99307.72;;;9.41;96.00
2675;BME280;1347;42.122;24.746;2023-03-04T17:22:16;99308.72;;;9.29;96.46
2675;BME280;1347;42.122;24.746;2023-03-04T17:24:43;99306.22;;;9.20;97.51
2675;BME280;1347;42.122;24.746;2023-03-04T17:27:12;99308.78;;;9.10;97.90
2675;BME280;1347;42.122;24.746;2023-03-04T17:29:41;99314.13;;;9.03;98.52
2675;BME280;1347;42.122;24.746;2023-03-04T17:32:08;99303.19;;;9.03;98.80
2675;BME280;1347;42.122;24.746;2023-03-04T17:34:35;99309.03;;;9.01;98.62
2675;BME280;1347;42.122;24.746;2023-03-04T17:37:02;99309.31;;;8.96;100.00
2675;BME280;1347;42.122;24.746;2023-03-04T17:39:29;99309.47;;;9.03;99.72
2675;BME280;1347;42.122;24.746;2023-03-04T17:41:56;99314.78;;;8.96;100.00
2675;BME280;1347;42.122;24.746;2023-03-04T17:44:25;99311.84;;;8.85;100.00
2675;BME280;1347;42.122;24.746;2023-03-04T17:46:52;99322.84;;;8.89;100.00
2675;BME280;1347;42.122;24.746;2023-03-04T17:49:19;99311.47;;;8.64;100.00
2675;BME280;1347;42.122;24.746;2023-03-04T17:51:46;99308.31;;;8.62;100.00
2675;BME280;1347;42.122;24.746;2023-03-04T17:54:13;99302.03;;;8.81;100.00
2675;BME280;1347;42.122;24.746;2023-03-04T17:56:40;99305.72;;;8.69;100.00
2675;BME280;1347;42.122;24.746;2023-03-04T17:59:11;99307.84;;;8.79;100.00
2675;BME280;1347;42.122;24.746;2023-03-04T18:01:41;99304.25;;;8.75;100.00
2675;BME280;1347;42.122;24.746;2023-03-04T18:04:09;99308.88;;;8.71;100.00
2675;BME280;1347;42.122;24.746;2023-03-04T18:06:37;99306.34;;;8.82;100.00
2675;BME280;1347;42.122;24.746;2023-03-04T18:09:04;99307.91;;;8.83;100.00
2675;BME280;1347;42.122;24.746;2023-03-04T18:11:32;99303.25;;;8.83;100.00
2675;BME280;1347;42.122;24.746;2023-03-04T18:13:59;99300.91;;;8.85;100.00
2675;BME280;1347;42.122;24.746;2023-03-04T18:16:26;99308.84;;;8.91;100.00
2675;BME280;1347;42.122;24.746;2023-03-04T18:18:56;99304.09;;;8.88;100.00
2675;BME280;1347;42.122;24.746;2023-03-04T18:21:24;99304.75;;;8.81;100.00
2675;BME280;1347;42.122;24.746;2023-03-04T18:23:52;99296.63;;;8.65;100.00
2675;BME280;1347;42.122;24.746;2023-03-04T18:26:20;99297.81;;;8.64;100.00
2675;BME280;1347;42.122;24.746;2023-03-04T18:28:48;99296.59;;;8.62;100.00
2675;BME280;1347;42.122;24.746;2023-03-04T18:31:17;99303.72;;;8.47;100.00
2675;BME280;1347;42.122;24.746;2023-03-04T18:33:44;99303.63;;;8.63;100.00
2675;BME280;1347;42.122;24.746;2023-03-04T18:36:13;99304.13;;;8.68;100.00
2675;BME280;1347;42.122;24.746;2023-03-04T18:38:40;99304.06;;;8.45;100.00
2675;BME280;1347;42.122;24.746;2023-03-04T18:41:08;99300.13;;;8.62;100.00
2675;BME280;1347;42.122;24.746;2023-03-04T18:43:36;99297.94;;;8.71;100.00
2675;BME280;1347;42.122;24.746;2023-03-04T18:46:06;99293.75;;;8.77;100.00
2675;BME280;1347;42.122;24.746;2023-03-04T18:48:35;99295.53;;;8.89;100.00
2675;BME280;1347;42.122;24.746;2023-03-04T18:51:03;99299.56;;;8.95;100.00
2675;BME280;1347;42.122;24.746;2023-03-04T18:53:32;99303.13;;;8.99;100.00
2675;BME280;1347;42.122;24.746;2023-03-04T18:56:03;99297.78;;;9.06;100.00
2675;BME280;1347;42.122;24.746;2023-03-04T18:58:34;99289.53;;;9.03;100.00
2675;BME280;1347;42.122;24.746;2023-03-04T19:01:04;99296.25;;;9.09;100.00
2675;BME280;1347;42.122;24.746;2023-03-04T19:03:32;99297.56;;;9.15;100.00
2675;BME280;1347;42.122;24.746;2023-03-04T19:06:01;99299.19;;;9.19;100.00
2675;BME280;1347;42.122;24.746;2023-03-04T19:08:29;99298.44;;;9.22;100.00
2675;BME280;1347;42.122;24.746;2023-03-04T19:10:57;99300.03;;;9.23;100.00
2675;BME280;1347;42.122;24.746;2023-03-04T19:13:24;99305.16;;;9.25;100.00
2675;BME280;1347;42.122;24.746;2023-03-04T19:15:52;99301.25;;;9.26;100.00
2675;BME280;1347;42.122;24.746;2023-03-04T19:18:20;99301.78;;;9.35;100.00
2675;BME280;1347;42.122;24.746;2023-03-04T19:20:47;99295.53;;;9.35;100.00
2675;BME280;1347;42.122;24.746;2023-03-04T19:23:14;99304.09;;;9.33;100.00
2675;BME280;1347;42.122;24.746;2023-03-04T19:25:41;99299.78;;;9.32;100.00
2675;BME280;1347;42.122;24.746;2023-03-04T19:28:11;99306.34;;;9.28;100.00
2675;BME280;1347;42.122;24.746;2023-03-04T19:30:39;99307.13;;;9.28;100.00
2675;BME280;1347;42.122;24.746;2023-03-04T19:33:07;99311.00;;;9.27;100.00
2675;BME280;1347;42.122;24.746;2023-03-04T19:35:39;99302.28;;;9.18;100.00
2675;BME280;1347;42.122;24.746;2023-03-04T19:38:06;99307.19;;;9.09;100.00
2675;BME280;1347;42.122;24.746;2023-03-04T19:40:33;99296.88;;;8.99;100.00
2675;BME280;1347;42.122;24.746;2023-03-04T19:43:00;99300.00;;;8.78;100.00
2675;BME280;1347;42.122;24.746;2023-03-04T19:45:28;99302.47;;;8.83;100.00
2675;BME280;1347;42.122;24.746;2023-03-04T19:47:55;99312.06;;;8.54;100.00
2675;BME280;1347;42.122;24.746;2023-03-04T19:50:25;99313.34;;;8.41;100.00
2675;BME280;1347;42.122;24.746;2023-03-04T19:52:52;99314.56;;;8.24;100.00
2675;BME280;1347;42.122;24.746;2023-03-04T19:55:19;99302.75;;;8.01;100.00
2675;BME280;1347;42.122;24.746;2023-03-04T19:57:46;99295.63;;;7.96;100.00
2675;BME280;1347;42.122;24.746;2023-03-04T20:00:14;99301.63;;;7.86;100.00
2675;BME280;1347;42.122;24.746;2023-03-04T20:02:42;99294.03;;;7.60;100.00
2675;BME280;1347;42.122;24.746;2023-03-04T20:05:10;99291.31;;;7.60;100.00
2675;BME280;1347;42.122;24.746;2023-03-04T20:07:38;99295.44;;;7.54;100.00
2675;BME280;1347;42.122;24.746;2023-03-04T20:10:06;99294.34;;;7.39;100.00
2675;BME280;1347;42.122;24.746;2023-03-04T20:12:33;99299.19;;;7.30;100.00
2675;BME280;1347;42.122;24.746;2023-03-04T20:15:00;99291.16;;;7.37;100.00
2675;BME280;1347;42.122;24.746;2023-03-04T20:17:27;99296.97;;;7.36;100.00
2675;BME280;1347;42.122;24.746;2023-03-04T20:19:56;99289.25;;;7.22;100.00
2675;BME280;1347;42.122;24.746;2023-03-04T20:22:23;99300.22;;;7.26;100.00
2675;BME280;1347;42.122;24.746;2023-03-04T20:24:50;99291.69;;;7.27;100.00
2675;BME280;1347;42.122;24.746;2023-03-04T20:27:19;99287.94;;;7.16;100.00
2675;BME280;1347;42.122;24.746;2023-03-04T20:29:46;99279.56;;;7.25;100.00
2675;BME280;1347;42.122;24.746;2023-03-04T20:32:13;99286.69;;;7.29;100.00
2675;BME280;1347;42.122;24.746;2023-03-04T20:34:40;99280.25;;;7.37;100.00
2675;BME280;1347;42.122;24.746;2023-03-04T20:37:08;99277.44;;;7.34;100.00
2675;BME280;1347;42.122;24.746;2023-03-04T20:39:35;99282.72;;;7.27;100.00
2675;BME280;1347;42.122;24.746;2023-03-04T20:42:02;99279.66;;;7.28;100.00
2675;BME280;1347;42.122;24.746;2023-03-04T20:44:31;99278.88;;;7.28;100.00
2675;BME280;1347;42.122;24.746;2023-03-04T20:47:00;99279.84;;;7.20;100.00
2675;BME280;1347;42.122;24.746;2023-03-04T20:49:28;99280.53;;;7.17;100.00
2675;BME280;1347;42.122;24.746;2023-03-04T20:51:56;99278.00;;;7.08;100.00
2675;BME280;1347;42.122;24.746;2023-03-04T20:54:29;99276.91;;;7.13;100.00
2675;BME280;1347;42.122;24.746;2023-03-04T20:56:56;99276.16;;;7.12;100.00
2675;BME280;1347;42.122;24.746;2023-03-04T20:59:23;99267.97;;;7.12;100.00
2675;BME280;1347;42.122;24.746;2023-03-04T21:01:50;99276.06;;;7.09;100.00
2675;BME280;1347;42.122;24.746;2023-03-04T21:04:17;99275.28;;;7.08;100.00
2675;BME280;1347;42.122;24.746;2023-03-04T21:06:45;99267.78;;;7.05;100.00
2675;BME280;1347;42.122;24.746;2023-03-04T21:09:14;99276.69;;;7.02;100.00
2675;BME280;1347;42.122;24.746;2023-03-04T21:11:43;99280.91;;;6.99;100.00
2675;BME280;1347;42.122;24.746;2023-03-04T21:14:11;99278.88;;;6.96;100.00
2675;BME280;1347;42.122;24.746;2023-03-04T21:16:39;99277.63;;;6.94;100.00
2675;BME280;1347;42.122;24.746;2023-03-04T21:19:12;99272.34;;;6.85;100.00
2675;BME280;1347;42.122;24.746;2023-03-04T21:21:40;99272.28;;;6.82;100.00
2675;BME280;1347;42.122;24.746;2023-03-04T21:24:09;99279.19;;;6.63;100.00
2675;BME280;1347;42.122;24.746;2023-03-04T21:26:38;99267.41;;;6.59;100.00
2675;BME280;1347;42.122;24.746;2023-03-04T21:29:08;99266.78;;;6.50;100.00
2675;BME280;1347;42.122;24.746;2023-03-04T21:31:38;99268.94;;;6.45;100.00
2675;BME280;1347;42.122;24.746;2023-03-04T21:34:11;99263.47;;;6.29;100.00
2675;BME280;1347;42.122;24.746;2023-03-04T21:36:39;99262.63;;;6.13;100.00
2675;BME280;1347;42.122;24.746;2023-03-04T21:39:06;99253.72;;;6.00;100.00
2675;BME280;1347;42.122;24.746;2023-03-04T21:41:33;99251.78;;;6.01;100.00
2675;BME280;1347;42.122;24.746;2023-03-04T21:44:00;99252.16;;;5.99;100.00
2675;BME280;1347;42.122;24.746;2023-03-04T21:46:29;99253.97;;;5.95;100.00
2675;BME280;1347;42.122;24.746;2023-03-04T21:48:55;99240.34;;;5.95;100.00
2675;BME280;1347;42.122;24.746;2023-03-04T21:51:22;99233.78;;;5.96;100.00
2675;BME280;1347;42.122;24.746;2023-03-04T21:53:49;99234.56;;;5.97;100.00
2675;BME280;1347;42.122;24.746;2023-03-04T21:56:16;99222.28;;;6.03;100.00
2675;BME280;1347;42.122;24.746;2023-03-04T21:58:43;99237.50;;;6.04;100.00
2675;BME280;1347;42.122;24.746;2023-03-04T22:01:11;99232.50;;;6.06;100.00
2675;BME280;1347;42.122;24.746;2023-03-04T22:03:40;99228.53;;;6.03;100.00
2675;BME280;1347;42.122;24.746;2023-03-04T22:06:08;99228.53;;;6.03;100.00
2675;BME280;1347;42.122;24.746;2023-03-04T22:08:37;99224.22;;;6.02;100.00
2675;BME280;1347;42.122;24.746;2023-03-04T22:11:05;99227.41;;;6.04;100.00
2675;BME280;1347;42.122;24.746;2023-03-04T22:13:32;99223.66;;;6.09;100.00
2675;BME280;1347;42.122;24.746;2023-03-04T22:15:59;99227.41;;;6.04;100.00
2675;BME280;1347;42.122;24.746;2023-03-04T22:18:26;99229.31;;;6.04;100.00
2675;BME280;1347;42.122;24.746;2023-03-04T22:21:00;99230.00;;;6.01;100.00
2675;BME280;1347;42.122;24.746;2023-03-04T22:23:27;99227.75;;;6.03;100.00
2675;BME280;1347;42.122;24.746;2023-03-04T22:25:54;99225.81;;;6.03;100.00
2675;BME280;1347;42.122;24.746;2023-03-04T22:28:24;99223.00;;;6.00;100.00
2675;BME280;1347;42.122;24.746;2023-03-04T22:30:53;99222.22;;;5.99;100.00
2675;BME280;1347;42.122;24.746;2023-03-04T22:33:21;99217.91;;;5.98;100.00
2675;BME280;1347;42.122;24.746;2023-03-04T22:35:48;99221.75;;;5.97;100.00
2675;BME280;1347;42.122;24.746;2023-03-04T22:38:17;99216.31;;;5.97;100.00
2675;BME280;1347;42.122;24.746;2023-03-04T22:40:44;99208.16;;;5.97;100.00
2675;BME280;1347;42.122;24.746;2023-03-04T22:43:10;99216.22;;;5.94;100.00
2675;BME280;1347;42.122;24.746;2023-03-04T22:45:37;99203.41;;;5.94;100.00
2675;BME280;1347;42.122;24.746;2023-03-04T22:48:05;99213.75;;;5.88;100.00
2675;BME280;1347;42.122;24.746;2023-03-04T22:50:34;99218.25;;;5.84;100.00
2675;BME280;1347;42.122;24.746;2023-03-04T22:53:01;99214.75;;;5.84;100.00
2675;BME280;1347;42.122;24.746;2023-03-04T22:55:33;99223.16;;;5.79;100.00
2675;BME280;1347;42.122;24.746;2023-03-04T22:58:01;99231.66;;;5.77;100.00
2675;BME280;1347;42.122;24.746;2023-03-04T23:00:30;99229.16;;;5.72;100.00
2675;BME280;1347;42.122;24.746;2023-03-04T23:02:57;99225.66;;;5.72;100.00
2675;BME280;1347;42.122;24.746;2023-03-04T23:05:24;99224.66;;;5.64;100.00
2675;BME280;1347;42.122;24.746;2023-03-04T23:07:51;99218.69;;;5.59;100.00
2675;BME280;1347;42.122;24.746;2023-03-04T23:10:20;99214.84;;;5.60;100.00
2675;BME280;1347;42.122;24.746;2023-03-04T23:12:49;99210.59;;;5.62;100.00
2675;BME280;1347;42.122;24.746;2023-03-04T23:15:17;99206.44;;;5.52;100.00
2675;BME280;1347;42.122;24.746;2023-03-04T23:17:45;99196.03;;;5.54;100.00
2675;BME280;1347;42.122;24.746;2023-03-04T23:20:14;99200.22;;;5.52;100.00
2675;BME280;1347;42.122;24.746;2023-03-04T23:22:42;99196.69;;;5.51;100.00
2675;BME280;1347;42.122;24.746;2023-03-04T23:25:09;99190.47;;;5.51;100.00
2675;BME280;1347;42.122;24.746;2023-03-04T23:27:36;99191.53;;;5.46;100.00
2675;BME280;1347;42.122;24.746;2023-03-04T23:30:06;99195.03;;;5.47;100.00
2675;BME280;1347;42.122;24.746;2023-03-04T23:32:33;99192.78;;;5.37;100.00
2675;BME280;1347;42.122;24.746;2023-03-04T23:35:00;99191.66;;;5.38;100.00
2675;BME280;1347;42.122;24.746;2023-03-04T23:37:27;99185.88;;;5.39;100.00
2675;BME280;1347;42.122;24.746;2023-03-04T23:39:54;99192.88;;;5.40;100.00
2675;BME280;1347;42.122;24.746;2023-03-04T23:42:21;99191.75;;;5.41;100.00
2675;BME280;1347;42.122;24.746;2023-03-04T23:44:48;99195.59;;;5.40;100.00
2675;BME280;1347;42.122;24.746;2023-03-04T23:47:16;99195.59;;;5.40;100.00
2675;BME280;1347;42.122;24.746;2023-03-04T23:49:43;99192.09;;;5.40;100.00
2675;BME280;1347;42.122;24.746;2023-03-04T23:52:10;99187.69;;;5.35;100.00
2675;BME280;1347;42.122;24.746;2023-03-04T23:54:37;99188.16;;;5.37;100.00
2675;BME280;1347;42.122;24.746;2023-03-04T23:57:04;99194.25;;;5.34;100.00
2675;BME280;1347;42.122;24.746;2023-03-04T23:59:31;99180.22;;;5.32;100.00
